Accueil
METAR-TAF:

METAR-TAF

Aéroports :

Aéroport de Strasbourg-Entzheim

Strasbourg, France

latitude: 48-33N, longitude: 007-38E, altitude: 153 m

Observation

Le bulletin a été fait il y a 21 minutes, à 19:00 UTC
Vent 3 kt de nord/nord-ouest
Température 13°C
Humidité 82%
Pression 1030 hPa
Visibilité 10 km ou plus
Ciel couvert à une hauteur de 5200 ft

METAR: LFST 061900Z AUTO 34003KT 9999 OVC052 13/10 Q1030 NOSIG

Heure: 21:21 (19:21 UTC)

Prévision

Le bulletin a été fait il y a 2 heures et 21 minutes, à 17:00 UTC
Prévision valable du 06 à 18 UTC au 07 à 18 UTC
Vent 4 kt de nord-ouest
Visibilité 10 km ou plus
Quelques nuages à une hauteur de 3500 ft

TAF: LFST 061700Z 0618/0718 32004KT 9999 FEW035

Observations et prévisions météorologiques de plus de 4000 aéroports (messages METAR et TAF).

Les stations disponibles sont représentées par des disques jaunes et rouges sur la carte.

Passer la souris dessus pour voir le nom de la station.

Cliquer dessus pour voir les observations et prévisions météorologiques.

Pour changer de carte: cliquez sur les boutons verts avec une croix noire pour zoomer, sur le bouton vert avec un tiret pour effectuer un zoom arrière, ou sur les flèches vertes pour les cartes adjacentes.


METAR-TAF: